sensor_id;sensor_type;location;lat;lon;timestamp;pressure;altitude;pressure_sealevel;temperature;humidity
29383;BME280;16365;51.598;7.668;2023-01-01T00:01:23;100321.53;;;21.98;34.55
29383;BME280;16365;51.598;7.668;2023-01-01T00:03:51;100322.31;;;21.99;34.48
29383;BME280;16365;51.598;7.668;2023-01-01T00:06:18;100320.28;;;21.99;34.62
29383;BME280;16365;51.598;7.668;2023-01-01T00:08:45;100331.19;;;22.01;34.28
29383;BME280;16365;51.598;7.668;2023-01-01T00:11:12;100337.63;;;22.01;34.65
29383;BME280;16365;51.598;7.668;2023-01-01T00:13:40;100348.94;;;22.01;33.91
29383;BME280;16365;51.598;7.668;2023-01-01T00:16:10;100341.25;;;22.02;33.86
29383;BME280;16365;51.598;7.668;2023-01-01T00:18:37;100327.53;;;22.04;33.96
29383;BME280;16365;51.598;7.668;2023-01-01T00:21:10;100342.06;;;22.02;33.93
29383;BME280;16365;51.598;7.668;2023-01-01T00:23:38;100345.66;;;22.06;34.07
29383;BME280;16365;51.598;7.668;2023-01-01T00:26:11;100340.38;;;22.08;33.86
29383;BME280;16365;51.598;7.668;2023-01-01T00:28:39;100358.13;;;22.13;34.11
29383;BME280;16365;51.598;7.668;2023-01-01T00:31:09;100353.28;;;22.13;33.74
29383;BME280;16365;51.598;7.668;2023-01-01T00:33:36;100358.53;;;22.15;33.68
29383;BME280;16365;51.598;7.668;2023-01-01T00:36:07;100340.38;;;22.16;33.57
29383;BME280;16365;51.598;7.668;2023-01-01T00:38:34;100352.44;;;22.20;33.81
29383;BME280;16365;51.598;7.668;2023-01-01T00:41:01;100345.56;;;22.21;33.70
29383;BME280;16365;51.598;7.668;2023-01-01T00:43:27;100333.06;;;22.22;33.46
29383;BME280;16365;51.598;7.668;2023-01-01T00:45:54;100329.44;;;22.21;33.78
29383;BME280;16365;51.598;7.668;2023-01-01T00:48:20;100324.22;;;22.20;33.42
29383;BME280;16365;51.598;7.668;2023-01-01T00:50:47;100327.44;;;22.18;33.36
29383;BME280;16365;51.598;7.668;2023-01-01T00:53:14;100323.00;;;22.17;33.58
29383;BME280;16365;51.598;7.668;2023-01-01T00:55:42;100327.06;;;22.16;33.42
29383;BME280;16365;51.598;7.668;2023-01-01T00:58:09;100325.47;;;22.15;33.83
29383;BME280;16365;51.598;7.668;2023-01-01T01:00:37;100332.72;;;22.13;33.53
29383;BME280;16365;51.598;7.668;2023-01-01T01:03:03;100335.97;;;22.07;33.69
29383;BME280;16365;51.598;7.668;2023-01-01T01:05:30;100337.63;;;22.05;33.58
29383;BME280;16365;51.598;7.668;2023-01-01T01:07:57;100340.84;;;22.03;33.40
29383;BME280;16365;51.598;7.668;2023-01-01T01:10:24;100350.97;;;22.01;33.64
29383;BME280;16365;51.598;7.668;2023-01-01T01:12:52;100340.47;;;21.98;33.64
29383;BME280;16365;51.598;7.668;2023-01-01T01:15:18;100359.06;;;21.95;33.73
29383;BME280;16365;51.598;7.668;2023-01-01T01:17:45;100353.81;;;21.94;33.70
29383;BME280;16365;51.598;7.668;2023-01-01T01:20:12;100351.41;;;21.92;33.57
29383;BME280;16365;51.598;7.668;2023-01-01T01:22:39;100355.84;;;21.90;33.94
29383;BME280;16365;51.598;7.668;2023-01-01T01:25:06;100354.25;;;21.89;33.53
29383;BME280;16365;51.598;7.668;2023-01-01T01:27:32;100355.09;;;21.86;33.61
29383;BME280;16365;51.598;7.668;2023-01-01T01:29:59;100355.91;;;21.83;33.52
29383;BME280;16365;51.598;7.668;2023-01-01T01:32:25;100353.91;;;21.79;33.45
29383;BME280;16365;51.598;7.668;2023-01-01T01:34:52;100360.41;;;21.76;33.03
29383;BME280;16365;51.598;7.668;2023-01-01T01:37:18;100366.44;;;21.75;33.46
29383;BME280;16365;51.598;7.668;2023-01-01T01:39:45;100362.03;;;21.70;33.52
29383;BME280;16365;51.598;7.668;2023-01-01T01:42:18;100368.09;;;21.69;33.42
29383;BME280;16365;51.598;7.668;2023-01-01T01:47:17;100373.38;;;21.63;33.04
29383;BME280;16365;51.598;7.668;2023-01-01T01:49:46;100368.16;;;21.62;33.10
29383;BME280;16365;51.598;7.668;2023-01-01T01:52:13;100377.81;;;21.61;32.86
29383;BME280;16365;51.598;7.668;2023-01-01T01:54:41;100380.25;;;21.59;33.02
29383;BME280;16365;51.598;7.668;2023-01-01T01:57:10;100379.88;;;21.57;32.62
29383;BME280;16365;51.598;7.668;2023-01-01T01:59:42;100379.88;;;21.57;33.13
29383;BME280;16365;51.598;7.668;2023-01-01T02:02:22;100384.31;;;21.54;32.56
29383;BME280;16365;51.598;7.668;2023-01-01T02:04:53;100379.03;;;21.56;32.91
29383;BME280;16365;51.598;7.668;2023-01-01T02:07:20;100386.72;;;21.55;32.88
29383;BME280;16365;51.598;7.668;2023-01-01T02:09:48;100380.69;;;21.57;32.80
29383;BME280;16365;51.598;7.668;2023-01-01T02:12:14;100393.97;;;21.57;32.70
29383;BME280;16365;51.598;7.668;2023-01-01T02:14:40;100395.16;;;21.55;32.59
29383;BME280;16365;51.598;7.668;2023-01-01T02:17:09;100383.50;;;21.53;32.47
29383;BME280;16365;51.598;7.668;2023-01-01T02:22:33;100405.28;;;21.49;32.17
29383;BME280;16365;51.598;7.668;2023-01-01T02:25:22;100395.63;;;21.47;32.14
29383;BME280;16365;51.598;7.668;2023-01-01T02:30:49;100390.38;;;21.49;32.27
29383;BME280;16365;51.598;7.668;2023-01-01T02:33:22;100387.56;;;21.45;31.89
29383;BME280;16365;51.598;7.668;2023-01-01T02:36:00;100376.28;;;21.45;32.15
29383;BME280;16365;51.598;7.668;2023-01-01T02:38:36;100390.00;;;21.43;32.01
29383;BME280;16365;51.598;7.668;2023-01-01T02:41:07;100380.75;;;21.43;32.22
29383;BME280;16365;51.598;7.668;2023-01-01T02:43:36;100389.59;;;21.41;32.18
29383;BME280;16365;51.598;7.668;2023-01-01T02:46:10;100389.63;;;21.38;31.86
29383;BME280;16365;51.598;7.668;2023-01-01T02:48:48;100390.81;;;21.37;32.06
29383;BME280;16365;51.598;7.668;2023-01-01T02:51:34;100398.91;;;21.35;32.28
29383;BME280;16365;51.598;7.668;2023-01-01T02:54:10;100392.03;;;21.36;32.28
29383;BME280;16365;51.598;7.668;2023-01-01T02:59:22;100387.22;;;21.29;31.93
29383;BME280;16365;51.598;7.668;2023-01-01T03:02:20;100391.66;;;21.26;32.21
29383;BME280;16365;51.598;7.668;2023-01-01T03:08:00;100388.44;;;21.21;32.56
29383;BME280;16365;51.598;7.668;2023-01-01T03:10:55;100400.94;;;21.20;32.01
29383;BME280;16365;51.598;7.668;2023-01-01T03:16:08;100399.34;;;21.19;32.33
29383;BME280;16365;51.598;7.668;2023-01-01T03:19:00;100405.00;;;21.15;32.36
29383;BME280;16365;51.598;7.668;2023-01-01T03:21:50;100398.13;;;21.16;32.08
29383;BME280;16365;51.598;7.668;2023-01-01T03:24:28;100401.38;;;21.15;31.78
29383;BME280;16365;51.598;7.668;2023-01-01T03:27:01;100407.00;;;21.15;32.11
29383;BME280;16365;51.598;7.668;2023-01-01T03:29:33;100411.03;;;21.14;31.93
29383;BME280;16365;51.598;7.668;2023-01-01T03:32:03;100421.53;;;21.13;32.18
29383;BME280;16365;51.598;7.668;2023-01-01T03:34:36;100408.63;;;21.12;32.25
29383;BME280;16365;51.598;7.668;2023-01-01T03:37:07;100411.03;;;21.10;32.24
29383;BME280;16365;51.598;7.668;2023-01-01T03:39:37;100415.09;;;21.09;32.09
29383;BME280;16365;51.598;7.668;2023-01-01T03:42:26;100409.06;;;21.03;31.85
29383;BME280;16365;51.598;7.668;2023-01-01T03:45:01;100407.84;;;21.04;32.25
29383;BME280;16365;51.598;7.668;2023-01-01T03:47:30;100404.59;;;21.06;32.48
29383;BME280;16365;51.598;7.668;2023-01-01T03:49:57;100388.50;;;21.03;32.35
29383;BME280;16365;51.598;7.668;2023-01-01T03:52:33;100400.59;;;21.00;32.35
29383;BME280;16365;51.598;7.668;2023-01-01T03:55:11;100395.78;;;21.00;32.08
29383;BME280;16365;51.598;7.668;2023-01-01T03:58:02;100408.66;;;20.98;32.50
29383;BME280;16365;51.598;7.668;2023-01-01T04:00:36;100417.91;;;21.02;32.27
29383;BME280;16365;51.598;7.668;2023-01-01T04:03:15;100407.47;;;20.99;32.26
29383;BME280;16365;51.598;7.668;2023-01-01T04:05:43;100414.28;;;21.01;32.42
29383;BME280;16365;51.598;7.668;2023-01-01T04:08:11;100416.69;;;21.03;32.62
29383;BME280;16365;51.598;7.668;2023-01-01T04:10:46;100424.75;;;21.01;32.46
29383;BME280;16365;51.598;7.668;2023-01-01T04:13:13;100427.16;;;21.02;32.51
29383;BME280;16365;51.598;7.668;2023-01-01T04:15:40;100429.97;;;21.02;32.55
29383;BME280;16365;51.598;7.668;2023-01-01T04:18:07;100436.41;;;21.03;32.47
29383;BME280;16365;51.598;7.668;2023-01-01T04:20:34;100449.31;;;21.04;32.41
29383;BME280;16365;51.598;7.668;2023-01-01T04:23:01;100440.88;;;21.04;32.51
29383;BME280;16365;51.598;7.668;2023-01-01T04:25:29;100463.81;;;21.06;32.48
29383;BME280;16365;51.598;7.668;2023-01-01T04:27:56;100458.97;;;21.07;32.64
29383;BME280;16365;51.598;7.668;2023-01-01T04:30:28;100457.75;;;21.08;32.64
29383;BME280;16365;51.598;7.668;2023-01-01T04:32:55;100469.88;;;21.08;32.66
29383;BME280;16365;51.598;7.668;2023-01-01T04:35:21;100474.28;;;21.09;32.57
29383;BME280;16365;51.598;7.668;2023-01-01T04:37:48;100467.00;;;21.12;32.66
29383;BME280;16365;51.598;7.668;2023-01-01T04:40:14;100464.19;;;21.12;32.63
29383;BME280;16365;51.598;7.668;2023-01-01T04:42:41;100463.81;;;21.13;32.46
29383;BME280;16365;51.598;7.668;2023-01-01T04:45:09;100460.16;;;21.13;32.55
29383;BME280;16365;51.598;7.668;2023-01-01T04:47:37;100439.25;;;21.14;32.13
29383;BME280;16365;51.598;7.668;2023-01-01T04:50:04;100442.06;;;21.14;32.57
29383;BME280;16365;51.598;7.668;2023-01-01T04:52:32;100457.75;;;21.15;32.77
29383;BME280;16365;51.598;7.668;2023-01-01T04:54:58;100467.00;;;21.15;32.68
29383;BME280;16365;51.598;7.668;2023-01-01T04:57:25;100467.81;;;21.16;32.81
29383;BME280;16365;51.598;7.668;2023-01-01T04:59:54;100465.00;;;21.16;32.85
29383;BME280;16365;51.598;7.668;2023-01-01T05:02:20;100466.59;;;21.17;32.84
29383;BME280;16365;51.598;7.668;2023-01-01T05:04:47;100477.50;;;21.18;32.95
29383;BME280;16365;51.598;7.668;2023-01-01T05:07:14;100466.22;;;21.18;32.85
29383;BME280;16365;51.598;7.668;2023-01-01T05:09:41;100478.69;;;21.17;32.95
29383;BME280;16365;51.598;7.668;2023-01-01T05:12:08;100469.84;;;21.19;32.93
29383;BME280;16365;51.598;7.668;2023-01-01T05:14:34;100485.16;;;21.18;32.96
29383;BME280;16365;51.598;7.668;2023-01-01T05:17:01;100488.34;;;21.20;32.80
29383;BME280;16365;51.598;7.668;2023-01-01T05:19:28;100493.59;;;21.18;32.92
29383;BME280;16365;51.598;7.668;2023-01-01T05:21:54;100496.81;;;21.20;32.95
29383;BME280;16365;51.598;7.668;2023-01-01T05:24:21;100501.66;;;21.19;32.84
29383;BME280;16365;51.598;7.668;2023-01-01T05:26:47;100483.13;;;21.18;33.17
29383;BME280;16365;51.598;7.668;2023-01-01T05:29:14;100473.03;;;21.17;33.18
29383;BME280;16365;51.598;7.668;2023-01-01T05:31:43;100483.50;;;21.17;33.60
29383;BME280;16365;51.598;7.668;2023-01-01T05:34:09;100487.97;;;21.18;33.08
29383;BME280;16365;51.598;7.668;2023-01-01T05:36:36;100499.25;;;21.14;32.93
29383;BME280;16365;51.598;7.668;2023-01-01T05:39:06;100498.81;;;21.12;32.96
29383;BME280;16365;51.598;7.668;2023-01-01T05:41:33;100493.22;;;21.09;33.14
29383;BME280;16365;51.598;7.668;2023-01-01T05:44:04;100498.03;;;21.04;33.07
29383;BME280;16365;51.598;7.668;2023-01-01T05:46:31;100492.41;;;21.01;33.16
29383;BME280;16365;51.598;7.668;2023-01-01T05:48:57;100496.44;;;20.96;33.17
29383;BME280;16365;51.598;7.668;2023-01-01T05:51:26;100498.44;;;20.92;33.29
29383;BME280;16365;51.598;7.668;2023-01-01T05:53:53;100496.84;;;20.91;33.70
29383;BME280;16365;51.598;7.668;2023-01-01T05:56:20;100502.47;;;20.91;33.45
29383;BME280;16365;51.598;7.668;2023-01-01T05:58:46;100502.47;;;20.88;33.58
29383;BME280;16365;51.598;7.668;2023-01-01T06:01:17;100518.19;;;20.82;33.62
29383;BME280;16365;51.598;7.668;2023-01-01T06:03:45;100530.25;;;20.78;33.62
29383;BME280;16365;51.598;7.668;2023-01-01T06:06:17;100537.50;;;20.76;34.06
29383;BME280;16365;51.598;7.668;2023-01-01T06:08:51;100538.31;;;20.73;33.88
29383;BME280;16365;51.598;7.668;2023-01-01T06:11:18;100541.13;;;20.73;33.86
29383;BME280;16365;51.598;7.668;2023-01-01T06:13:45;100543.94;;;20.73;33.90
29383;BME280;16365;51.598;7.668;2023-01-01T06:16:12;100553.59;;;20.72;34.23
29383;BME280;16365;51.598;7.668;2023-01-01T06:18:39;100564.06;;;20.71;33.88
29383;BME280;16365;51.598;7.668;2023-01-01T06:21:14;100562.47;;;20.70;33.95
29383;BME280;16365;51.598;7.668;2023-01-01T06:23:41;100562.06;;;20.72;33.99
29383;BME280;16365;51.598;7.668;2023-01-01T06:26:16;100557.63;;;20.71;34.02
29383;BME280;16365;51.598;7.668;2023-01-01T06:28:43;100566.91;;;20.75;34.34
29383;BME280;16365;51.598;7.668;2023-01-01T06:31:12;100587.44;;;20.75;34.61
29383;BME280;16365;51.598;7.668;2023-01-01T06:33:40;100574.53;;;20.78;34.65
29383;BME280;16365;51.598;7.668;2023-01-01T06:36:08;100565.28;;;20.77;34.67
29383;BME280;16365;51.598;7.668;2023-01-01T06:38:38;100562.88;;;20.76;34.77
29383;BME280;16365;51.598;7.668;2023-01-01T06:41:11;100572.91;;;20.73;34.99
29383;BME280;16365;51.598;7.668;2023-01-01T06:43:38;100587.44;;;20.75;34.69
29383;BME280;16365;51.598;7.668;2023-01-01T06:46:16;100595.06;;;20.75;34.37
29383;BME280;16365;51.598;7.668;2023-01-01T06:48:44;100596.69;;;20.76;34.46
29383;BME280;16365;51.598;7.668;2023-01-01T06:51:13;100589.03;;;20.76;34.46
29383;BME280;16365;51.598;7.668;2023-01-01T06:53:40;100597.06;;;20.78;34.62
29383;BME280;16365;51.598;7.668;2023-01-01T06:56:07;100595.06;;;20.78;34.69
29383;BME280;16365;51.598;7.668;2023-01-01T06:58:34;100600.69;;;20.78;34.48
29383;BME280;16365;51.598;7.668;2023-01-01T07:01:14;100602.31;;;20.76;34.65
29383;BME280;16365;51.598;7.668;2023-01-01T07:03:42;100611.97;;;20.78;34.63
29383;BME280;16365;51.598;7.668;2023-01-01T07:06:09;100620.84;;;20.77;34.55
29383;BME280;16365;51.598;7.668;2023-01-01T07:08:36;100633.31;;;20.76;34.72
29383;BME280;16365;51.598;7.668;2023-01-01T07:11:03;100645.81;;;20.75;34.73
29383;BME280;16365;51.598;7.668;2023-01-01T07:13:29;100635.34;;;20.75;34.72
29383;BME280;16365;51.598;7.668;2023-01-01T07:15:56;100618.81;;;20.74;34.75
29383;BME280;16365;51.598;7.668;2023-01-01T07:18:23;100632.88;;;20.74;34.75
29383;BME280;16365;51.598;7.668;2023-01-01T07:20:52;100632.88;;;20.74;34.86
29383;BME280;16365;51.598;7.668;2023-01-01T07:23:19;100633.72;;;20.74;34.83
29383;BME280;16365;51.598;7.668;2023-01-01T07:25:48;100649.00;;;20.73;35.06
29383;BME280;16365;51.598;7.668;2023-01-01T07:28:15;100648.19;;;20.73;35.10
29383;BME280;16365;51.598;7.668;2023-01-01T07:30:41;100638.94;;;20.72;34.97
29383;BME280;16365;51.598;7.668;2023-01-01T07:33:11;100647.00;;;20.70;35.11
29383;BME280;16365;51.598;7.668;2023-01-01T07:35:38;100656.25;;;20.71;35.14
29383;BME280;16365;51.598;7.668;2023-01-01T07:38:05;100650.19;;;20.69;35.17
29383;BME280;16365;51.598;7.668;2023-01-01T07:40:31;100656.22;;;20.67;35.05
29383;BME280;16365;51.598;7.668;2023-01-01T07:42:58;100666.28;;;20.68;35.20
29383;BME280;16365;51.598;7.668;2023-01-01T07:45:24;100681.19;;;20.65;35.05
29383;BME280;16365;51.598;7.668;2023-01-01T07:47:56;100696.09;;;20.66;35.68
29383;BME280;16365;51.598;7.668;2023-01-01T07:50:24;100690.03;;;20.67;35.75
29383;BME280;16365;51.598;7.668;2023-01-01T07:52:51;100694.88;;;20.70;35.65
29383;BME280;16365;51.598;7.668;2023-01-01T07:55:19;100701.72;;;20.69;36.01
29383;BME280;16365;51.598;7.668;2023-01-01T07:57:46;100704.53;;;20.69;36.10
29383;BME280;16365;51.598;7.668;2023-01-01T08:00:16;100698.50;;;20.67;36.30
29383;BME280;16365;51.598;7.668;2023-01-01T08:02:43;100693.25;;;20.66;36.27
29383;BME280;16365;51.598;7.668;2023-01-01T08:05:10;100695.66;;;20.64;36.46
29383;BME280;16365;51.598;7.668;2023-01-01T08:07:36;100700.47;;;20.60;36.46
29383;BME280;16365;51.598;7.668;2023-01-01T08:10:04;100705.31;;;20.56;36.47
29383;BME280;16365;51.598;7.668;2023-01-01T08:12:32;100713.31;;;20.53;36.63
29383;BME280;16365;51.598;7.668;2023-01-01T08:14:58;100720.94;;;20.49;36.81
29383;BME280;16365;51.598;7.668;2023-01-01T08:17:26;100731.81;;;20.47;36.65
29383;BME280;16365;51.598;7.668;2023-01-01T08:19:52;100720.50;;;20.44;36.97
29383;BME280;16365;51.598;7.668;2023-01-01T08:22:19;100731.38;;;20.42;37.17
29383;BME280;16365;51.598;7.668;2023-01-01T08:24:45;100734.94;;;20.39;37.25
29383;BME280;16365;51.598;7.668;2023-01-01T08:27:13;100735.34;;;20.37;37.25
29383;BME280;16365;51.598;7.668;2023-01-01T08:29:40;100739.38;;;20.36;37.55
29383;BME280;16365;51.598;7.668;2023-01-01T08:32:06;100738.94;;;20.34;37.47
29383;BME280;16365;51.598;7.668;2023-01-01T08:34:33;100748.59;;;20.33;37.64
29383;BME280;16365;51.598;7.668;2023-01-01T08:37:00;100744.56;;;20.31;37.93
29383;BME280;16365;51.598;7.668;2023-01-01T08:39:26;100757.03;;;20.29;37.97
29383;BME280;16365;51.598;7.668;2023-01-01T08:41:54;100757.03;;;20.29;37.86
29383;BME280;16365;51.598;7.668;2023-01-01T08:44:21;100762.66;;;20.29;37.81
29383;BME280;16365;51.598;7.668;2023-01-01T08:46:48;100742.94;;;20.29;37.81
29383;BME280;16365;51.598;7.668;2023-01-01T08:49:14;100753.84;;;20.31;37.98
29383;BME280;16365;51.598;7.668;2023-01-01T08:51:41;100751.03;;;20.31;37.91
29383;BME280;16365;51.598;7.668;2023-01-01T08:54:07;100751.03;;;20.31;37.82
29383;BME280;16365;51.598;7.668;2023-01-01T08:56:33;100777.53;;;20.30;37.90
29383;BME280;16365;51.598;7.668;2023-01-01T08:59:01;100791.63;;;20.30;38.05
29383;BME280;16365;51.598;7.668;2023-01-01T09:01:29;100785.63;;;20.32;38.22
29383;BME280;16365;51.598;7.668;2023-01-01T09:03:56;100781.63;;;20.36;37.91
29383;BME280;16365;51.598;7.668;2023-01-01T09:06:22;100800.91;;;20.34;37.89
29383;BME280;16365;51.598;7.668;2023-01-01T09:08:49;100790.84;;;20.33;38.02
29383;BME280;16365;51.598;7.668;2023-01-01T09:11:22;100806.50;;;20.31;38.17
29383;BME280;16365;51.598;7.668;2023-01-01T09:13:49;100803.31;;;20.32;38.02
29383;BME280;16365;51.598;7.668;2023-01-01T09:16:15;100817.41;;;20.32;38.09
29383;BME280;16365;51.598;7.668;2023-01-01T09:18:42;100806.94;;;20.33;38.28
29383;BME280;16365;51.598;7.668;2023-01-01T09:21:08;100811.75;;;20.32;38.30
29383;BME280;16365;51.598;7.668;2023-01-01T09:23:35;100810.97;;;20.35;38.46
29383;BME280;16365;51.598;7.668;2023-01-01T09:26:07;100829.06;;;20.34;38.20
29383;BME280;16365;51.598;7.668;2023-01-01T09:28:35;100833.13;;;20.37;38.32
29383;BME280;16365;51.598;7.668;2023-01-01T09:31:02;100843.56;;;20.40;38.18
29383;BME280;16365;51.598;7.668;2023-01-01T09:33:32;100843.22;;;20.41;38.28
29383;BME280;16365;51.598;7.668;2023-01-01T09:36:27;100848.84;;;20.41;38.44
29383;BME280;16365;51.598;7.668;2023-01-01T09:38:55;100866.19;;;20.47;38.51
29383;BME280;16365;51.598;7.668;2023-01-01T09:41:45;100855.31;;;20.45;38.30
29383;BME280;16365;51.598;7.668;2023-01-01T09:47:18;100863.00;;;20.48;38.06
29383;BME280;16365;51.598;7.668;2023-01-01T09:49:48;100860.59;;;20.50;38.26
29383;BME280;16365;51.598;7.668;2023-01-01T09:52:18;100850.94;;;20.51;38.16
29383;BME280;16365;51.598;7.668;2023-01-01T09:54:57;100857.78;;;20.50;38.26
29383;BME280;16365;51.598;7.668;2023-01-01T09:57:30;100851.75;;;20.52;38.16
29383;BME280;16365;51.598;7.668;2023-01-01T09:59:58;100854.19;;;20.57;37.98
29383;BME280;16365;51.598;7.668;2023-01-01T10:02:34;100855.41;;;20.60;38.08
29383;BME280;16365;51.598;7.668;2023-01-01T10:05:20;100861.88;;;20.60;38.04
29383;BME280;16365;51.598;7.668;2023-01-01T10:08:09;100871.97;;;20.65;37.82
29383;BME280;16365;51.598;7.668;2023-01-01T10:10:59;100870.75;;;20.66;37.97
29383;BME280;16365;51.598;7.668;2023-01-01T10:13:40;100860.69;;;20.68;37.85
29383;BME280;16365;51.598;7.668;2023-01-01T10:16:33;100863.13;;;20.70;37.79
29383;BME280;16365;51.598;7.668;2023-01-01T10:21:41;100853.88;;;20.73;37.73
29383;BME280;16365;51.598;7.668;2023-01-01T10:26:57;100872.81;;;20.76;37.67
29383;BME280;16365;51.598;7.668;2023-01-01T10:29:37;100878.88;;;20.74;37.69
29383;BME280;16365;51.598;7.668;2023-01-01T10:34:45;100876.88;;;20.82;37.67
29383;BME280;16365;51.598;7.668;2023-01-01T10:37:12;100868.81;;;20.81;37.58
29383;BME280;16365;51.598;7.668;2023-01-01T10:39:41;100857.94;;;20.79;37.79
29383;BME280;16365;51.598;7.668;2023-01-01T10:42:13;100855.50;;;20.77;37.85
29383;BME280;16365;51.598;7.668;2023-01-01T10:44:40;100840.22;;;20.78;37.76
29383;BME280;16365;51.598;7.668;2023-01-01T10:49:57;100855.13;;;20.79;37.74
29383;BME280;16365;51.598;7.668;2023-01-01T10:52:35;100853.94;;;20.80;38.07
29383;BME280;16365;51.598;7.668;2023-01-01T10:55:02;100856.75;;;20.84;37.94
29383;BME280;16365;51.598;7.668;2023-01-01T10:57:33;100848.28;;;20.84;37.74
29383;BME280;16365;51.598;7.668;2023-01-01T11:02:35;100845.94;;;20.89;38.16
29383;BME280;16365;51.598;7.668;2023-01-01T11:05:13;100842.31;;;20.89;38.08
29383;BME280;16365;51.598;7.668;2023-01-01T11:07:47;100846.72;;;20.93;37.91
29383;BME280;16365;51.598;7.668;2023-01-01T11:10:21;100842.72;;;20.94;38.18
29383;BME280;16365;51.598;7.668;2023-01-01T11:12:49;100844.75;;;20.97;37.78
29383;BME280;16365;51.598;7.668;2023-01-01T11:15:40;100835.88;;;20.95;37.89
29383;BME280;16365;51.598;7.668;2023-01-01T11:18:19;100856.00;;;20.97;37.93
29383;BME280;16365;51.598;7.668;2023-01-01T11:20:55;100854.03;;;21.01;38.03
29383;BME280;16365;51.598;7.668;2023-01-01T11:23:32;100869.72;;;21.02;38.04
29383;BME280;16365;51.598;7.668;2023-01-01T11:26:04;100858.47;;;21.06;38.04
29383;BME280;16365;51.598;7.668;2023-01-01T11:28:33;100868.97;;;21.09;38.07
29383;BME280;16365;51.598;7.668;2023-01-01T11:31:13;100874.59;;;21.09;37.83
29383;BME280;16365;51.598;7.668;2023-01-01T11:33:50;100885.47;;;21.11;38.08
29383;BME280;16365;51.598;7.668;2023-01-01T11:36:23;100887.91;;;21.12;37.97
29383;BME280;16365;51.598;7.668;2023-01-01T11:39:04;100882.25;;;21.12;37.86
29383;BME280;16365;51.598;7.668;2023-01-01T11:41:46;100885.50;;;21.14;38.18
29383;BME280;16365;51.598;7.668;2023-01-01T11:46:52;100895.97;;;21.17;37.72
29383;BME280;16365;51.598;7.668;2023-01-01T11:49:22;100908.47;;;21.16;37.96
29383;BME280;16365;51.598;7.668;2023-01-01T11:51:50;100904.06;;;21.19;37.76
29383;BME280;16365;51.598;7.668;2023-01-01T11:54:32;100914.91;;;21.17;38.10
29383;BME280;16365;51.598;7.668;2023-01-01T11:57:08;100918.97;;;21.19;37.81
29383;BME280;16365;51.598;7.668;2023-01-01T11:59:54;100910.50;;;21.19;37.97
29383;BME280;16365;51.598;7.668;2023-01-01T12:02:49;100904.88;;;21.19;38.06
29383;BME280;16365;51.598;7.668;2023-01-01T12:05:23;100923.00;;;21.22;37.86
29383;BME280;16365;51.598;7.668;2023-01-01T12:07:51;100917.34;;;21.22;37.78
29383;BME280;16365;51.598;7.668;2023-01-01T12:10:26;100912.53;;;21.19;38.07
29383;BME280;16365;51.598;7.668;2023-01-01T12:13:16;100912.09;;;21.17;38.10
29383;BME280;16365;51.598;7.668;2023-01-01T12:18:34;100902.81;;;21.16;37.84
29383;BME280;16365;51.598;7.668;2023-01-01T12:21:21;100898.81;;;21.14;38.10
29383;BME280;16365;51.598;7.668;2023-01-01T12:23:50;100897.19;;;21.16;37.99
29383;BME280;16365;51.598;7.668;2023-01-01T12:26:25;100883.91;;;21.13;38.08
29383;BME280;16365;51.598;7.668;2023-01-01T12:29:17;100878.25;;;21.17;38.09
29383;BME280;16365;51.598;7.668;2023-01-01T12:32:08;100887.53;;;21.14;38.03
29383;BME280;16365;51.598;7.668;2023-01-01T12:37:42;100894.75;;;21.11;38.15
29383;BME280;16365;51.598;7.668;2023-01-01T12:43:34;100886.69;;;21.10;38.25
29383;BME280;16365;51.598;7.668;2023-01-01T12:57:42;100877.44;;;21.16;38.31
29383;BME280;16365;51.598;7.668;2023-01-01T13:00:16;100881.50;;;21.19;38.13
29383;BME280;16365;51.598;7.668;2023-01-01T13:02:52;100891.16;;;21.18;38.19
29383;BME280;16365;51.598;7.668;2023-01-01T13:05:23;100892.78;;;21.19;38.12
29383;BME280;16365;51.598;7.668;2023-01-01T13:07:55;100892.78;;;21.19;38.09
29383;BME280;16365;51.598;7.668;2023-01-01T13:13:02;100894.38;;;21.20;37.83
29383;BME280;16365;51.598;7.668;2023-01-01T13:42:46;100901.97;;;21.05;37.67
29383;BME280;16365;51.598;7.668;2023-01-01T13:45:37;100914.84;;;20.99;37.73
29383;BME280;16365;51.598;7.668;2023-01-01T13:49:19;100923.25;;;20.95;37.62
29383;BME280;16365;51.598;7.668;2023-01-01T13:51:51;100922.03;;;20.93;37.51
29383;BME280;16365;51.598;7.668;2023-01-01T13:55:00;100924.44;;;20.91;37.75
29383;BME280;16365;51.598;7.668;2023-01-01T14:00:29;100931.66;;;20.88;37.92
29383;BME280;16365;51.598;7.668;2023-01-01T14:02:59;100924.81;;;20.86;37.88
29383;BME280;16365;51.598;7.668;2023-01-01T14:05:31;100923.59;;;20.83;38.17
29383;BME280;16365;51.598;7.668;2023-01-01T14:07:59;100918.75;;;20.84;37.92
29383;BME280;16365;51.598;7.668;2023-01-01T14:15:34;100912.69;;;20.78;38.00
29383;BME280;16365;51.598;7.668;2023-01-01T14:18:04;100921.13;;;20.78;38.00
29383;BME280;16365;51.598;7.668;2023-01-01T14:20:46;100916.69;;;20.73;38.13
29383;BME280;16365;51.598;7.668;2023-01-01T14:23:34;100915.47;;;20.71;37.95
29383;BME280;16365;51.598;7.668;2023-01-01T14:26:13;100913.03;;;20.69;37.96
29383;BME280;16365;51.598;7.668;2023-01-01T14:28:41;100911.84;;;20.70;37.86
29383;BME280;16365;51.598;7.668;2023-01-01T14:31:11;100909.00;;;20.67;37.84
29383;BME280;16365;51.598;7.668;2023-01-01T14:33:39;100912.22;;;20.65;37.77
29383;BME280;16365;51.598;7.668;2023-01-01T14:36:15;100916.19;;;20.61;38.00
29383;BME280;16365;51.598;7.668;2023-01-01T14:38:45;100917.81;;;20.62;37.98
29383;BME280;16365;51.598;7.668;2023-01-01T14:41:16;100923.41;;;20.58;38.25
29383;BME280;16365;51.598;7.668;2023-01-01T14:43:45;100927.44;;;20.57;38.10
29383;BME280;16365;51.598;7.668;2023-01-01T14:46:14;100924.22;;;20.55;38.06